Time;durP1;ratioP1;P1;durP2;ratioP2;P2;SDS_P1;SDS_P2;PMS_P1;PMS_P2;Temp;Humidity;BMP_temperature;BMP_pressure;BME280_temperature;BME280_humidity;BME280_pressure;Samples;Min_cycle;Max_cycle;Signal;HPM_P1;HPM_P2
2022/06/17 00:01:23;;;;;;;1.63;0.83;;;;;;;21.30;54.99;99301.56;4790580;29;20206;-90
2022/06/17 00:03:49;;;;;;;2.10;0.80;;;;;;;21.34;54.29;99299.47;4806298;29;20198;-90
2022/06/17 00:06:15;;;;;;;2.90;1.43;;;;;;;21.36;53.94;99301.00;4805769;29;20174;-91
2022/06/17 00:08:44;;;;;;;1.93;0.87;;;;;;;21.32;53.77;99310.28;4806317;29;20178;-91
2022/06/17 00:11:13;;;;;;;2.50;1.10;;;;;;;21.20;55.19;99307.94;4790405;29;20594;-90
2022/06/17 00:13:38;;;;;;;2.03;0.90;;;;;;;21.22;55.14;99305.97;4806621;29;20299;-90
2022/06/17 00:16:09;;;;;;;4.23;0.90;;;;;;;21.20;55.46;99305.28;4805408;29;20591;-91
2022/06/17 00:18:35;;;;;;;4.40;0.90;;;;;;;21.11;53.86;99301.63;4806624;29;20177;-91
2022/06/17 00:21:02;;;;;;;1.33;0.60;;;;;;;21.07;54.35;99307.41;4806531;29;20545;-91
2022/06/17 00:23:27;;;;;;;1.50;0.80;;;;;;;21.02;54.32;99299.78;4806088;29;20198;-90
2022/06/17 00:25:53;;;;;;;4.17;1.10;;;;;;;20.94;54.39;99307.63;4806266;29;20192;-91
2022/06/17 00:28:21;;;;;;;2.60;0.80;;;;;;;20.90;55.36;99298.25;4805302;29;20186;-91
2022/06/17 00:30:47;;;;;;;3.33;0.87;;;;;;;20.91;54.99;99293.78;4790172;29;20194;-90
2022/06/17 00:33:15;;;;;;;1.33;0.70;;;;;;;20.89;54.68;99293.91;4806408;29;20179;-91
2022/06/17 00:35:47;;;;;;;4.40;0.73;;;;;;;20.87;54.85;99293.22;4805317;29;20206;-90
2022/06/17 00:38:19;;;;;;;1.90;1.00;;;;;;;20.86;55.41;99291.50;4806135;29;20634;-90
2022/06/17 00:40:45;;;;;;;1.50;0.90;;;;;;;20.82;55.74;99288.31;4806084;29;20194;-90
2022/06/17 00:43:35;;;;;;;2.17;0.97;;;;;;;20.78;56.20;99292.22;4805073;29;20218;-90
2022/06/17 00:46:38;;;;;;;1.50;0.87;;;;;;;20.81;55.48;99288.44;4790126;29;20182;-91
2022/06/17 00:49:10;;;;;;;1.70;0.80;;;;;;;20.70;55.76;99285.94;4805180;29;20190;-91
2022/06/17 00:51:44;;;;;;;3.40;0.87;;;;;;;20.67;55.60;99294.22;4806263;29;20174;-90
2022/06/17 00:54:25;;;;;;;1.57;0.70;;;;;;;20.63;55.30;99285.66;4806289;29;20174;-91
2022/06/17 00:56:51;;;;;;;3.17;1.23;;;;;;;20.63;56.01;99282.97;4790110;29;20194;-90
2022/06/17 00:59:17;;;;;;;1.27;0.67;;;;;;;20.61;56.45;99284.09;4805813;29;20201;-90
2022/06/17 01:01:50;;;;;;;2.93;1.07;;;;;;;20.51;56.62;99286.78;4805382;29;20642;-90
2022/06/17 01:04:22;;;;;;;3.00;0.80;;;;;;;20.48;57.12;99286.19;4806378;29;20209;-89
2022/06/17 01:06:58;;;;;;;1.40;0.70;;;;;;;20.49;57.18;99283.38;4805995;29;20167;-89
2022/06/17 01:12:15;;;;;;;2.73;1.23;;;;;;;20.20;57.68;99277.19;4806290;29;20178;-90
2022/06/17 01:14:42;;;;;;;3.07;0.90;;;;;;;20.17;58.14;99272.13;4806164;29;20694;-90
2022/06/17 01:17:10;;;;;;;2.90;1.10;;;;;;;20.23;58.16;99274.22;4806062;29;20195;-90
2022/06/17 01:19:44;;;;;;;1.27;0.67;;;;;;;20.18;58.79;99274.63;4809043;29;20182;-90
2022/06/17 01:22:22;;;;;;;4.87;0.90;;;;;;;20.17;58.75;99267.66;4793052;29;20179;-90
2022/06/17 01:24:51;;;;;;;2.13;1.23;;;;;;;20.19;58.36;99264.84;4809436;29;20200;-91
2022/06/17 01:27:21;;;;;;;2.10;1.10;;;;;;;20.16;58.58;99263.28;4809142;29;20186;-91
2022/06/17 01:29:47;;;;;;;2.53;0.97;;;;;;;20.13;58.00;99262.72;4809059;29;20174;-91
2022/06/17 01:32:16;;;;;;;2.00;1.00;;;;;;;20.04;59.02;99266.22;4809285;29;20590;-91
2022/06/17 01:34:43;;;;;;;1.57;1.00;;;;;;;20.01;59.06;99277.13;4807981;29;20186;-90
2022/06/17 01:37:10;;;;;;;4.87;1.00;;;;;;;20.04;59.02;99261.75;4808873;29;20187;-90
2022/06/17 01:39:36;;;;;;;2.40;0.97;;;;;;;19.99;59.08;99263.97;4808934;29;20243;-90
2022/06/17 01:42:02;;;;;;;2.63;1.10;;;;;;;19.93;59.18;99251.22;4808836;29;20641;-90
2022/06/17 01:44:33;;;;;;;5.90;1.27;;;;;;;19.83;59.12;99255.66;4808706;29;20210;-90
2022/06/17 01:47:01;;;;;;;2.23;0.90;;;;;;;19.80;59.40;99255.94;4808673;29;20198;-90
2022/06/17 01:49:40;;;;;;;3.70;0.93;;;;;;;19.71;60.23;99258.53;4808709;29;20179;-90
2022/06/17 01:52:17;;;;;;;1.53;0.90;;;;;;;19.71;60.07;99254.06;4808796;29;20247;-90
2022/06/17 01:55:01;;;;;;;5.43;1.70;;;;;;;19.61;60.47;99248.72;4792623;29;20197;-89
2022/06/17 01:57:39;;;;;;;5.30;1.50;;;;;;;19.63;60.09;99250.44;4808795;29;20231;-90
2022/06/17 02:00:16;;;;;;;3.10;1.57;;;;;;;19.63;60.05;99245.94;4808755;29;20235;-90
2022/06/17 02:02:45;;;;;;;2.90;1.17;;;;;;;19.57;60.44;99243.81;4808629;29;20740;-89
2022/06/17 02:05:12;;;;;;;3.33;1.40;;;;;;;19.56;60.29;99250.09;4808279;29;20239;-90
2022/06/17 02:07:40;;;;;;;2.37;1.10;;;;;;;19.52;60.38;99243.38;4808647;29;20188;-90
2022/06/17 02:10:06;;;;;;;3.37;1.30;;;;;;;19.51;60.18;99252.31;4808556;29;20178;-90
2022/06/17 02:12:31;;;;;;;2.10;0.93;;;;;;;19.49;60.51;99254.28;4792590;29;20240;-90
2022/06/17 02:14:58;;;;;;;2.27;0.90;;;;;;;19.47;60.82;99257.06;4807309;29;20182;-90
2022/06/17 02:17:31;;;;;;;4.67;1.40;;;;;;;19.42;60.81;99263.75;4808476;29;20223;-89
2022/06/17 02:19:57;;;;;;;2.37;1.00;;;;;;;19.38;61.60;99265.84;4808211;29;20166;-90
2022/06/17 02:22:25;;;;;;;3.13;1.17;;;;;;;19.33;61.47;99275.16;4792137;29;20193;-90
2022/06/17 02:24:56;;;;;;;2.37;1.23;;;;;;;19.30;61.36;99259.47;4807954;29;20652;-90
2022/06/17 02:27:23;;;;;;;3.60;1.50;;;;;;;19.23;62.34;99266.31;4792215;29;20593;-90
2022/06/17 02:29:50;;;;;;;1.27;0.73;;;;;;;19.24;62.38;99265.31;4806190;29;20626;-90
2022/06/17 02:32:16;;;;;;;2.20;1.10;;;;;;;19.28;62.10;99258.78;4807912;29;20196;-90
2022/06/17 02:34:58;;;;;;;2.60;1.27;;;;;;;19.12;62.48;99261.06;4807074;29;20630;-90
2022/06/17 02:37:25;;;;;;;3.23;1.30;;;;;;;19.15;62.52;99258.16;4792045;29;20202;-89
2022/06/17 02:39:52;;;;;;;2.37;1.30;;;;;;;19.13;62.80;99257.44;4807732;29;20179;-91
2022/06/17 02:42:25;;;;;;;3.53;1.23;;;;;;;19.07;63.21;99255.28;4807914;29;20175;-90
2022/06/17 02:45:00;;;;;;;4.23;1.87;;;;;;;19.00;63.44;99258.47;4801004;29;20182;-90
2022/06/17 02:47:26;;;;;;;2.43;1.13;;;;;;;19.05;63.21;99249.28;4808038;29;20189;-90
2022/06/17 02:49:53;;;;;;;6.63;1.30;;;;;;;19.09;63.40;99250.69;4791783;29;20189;-90
2022/06/17 02:52:23;;;;;;;2.47;1.10;;;;;;;18.99;63.91;99259.47;4807626;29;20190;-90
2022/06/17 02:54:56;;;;;;;5.30;1.40;;;;;;;18.98;64.08;99259.56;4807864;29;20189;-90
2022/06/17 02:57:27;;;;;;;2.97;1.30;;;;;;;19.04;63.75;99253.75;4807798;29;20253;-90
2022/06/17 03:00:11;;;;;;;3.13;1.50;;;;;;;19.07;63.70;99258.81;4791511;29;20217;-90
2022/06/17 03:02:48;;;;;;;2.20;1.30;;;;;;;19.03;64.10;99252.91;4807529;29;20202;-92
2022/06/17 03:05:25;;;;;;;2.27;1.13;;;;;;;19.02;63.33;99261.81;4792313;29;20221;-92
2022/06/17 03:07:52;;;;;;;3.20;1.20;;;;;;;18.99;64.05;99262.13;4807618;29;20211;-92
2022/06/17 03:10:43;;;;;;;1.90;0.80;;;;;;;19.06;63.86;99264.22;4791386;29;20180;-92
2022/06/17 03:13:13;;;;;;;2.23;1.17;;;;;;;18.96;64.87;99257.06;4788651;29;20263;-92
2022/06/17 03:15:42;;;;;;;1.90;1.13;;;;;;;19.00;64.83;99258.47;4806260;29;20244;-92
2022/06/17 03:18:10;;;;;;;3.13;1.37;;;;;;;18.95;65.48;99260.69;4807144;29;20193;-91
2022/06/17 03:20:37;;;;;;;4.60;1.70;;;;;;;18.87;65.90;99262.28;4807065;29;20249;-92
2022/06/17 03:23:10;;;;;;;3.13;0.90;;;;;;;18.84;66.00;99260.72;4807535;29;20217;-92
2022/06/17 03:25:38;;;;;;;9.50;1.43;;;;;;;18.90;66.16;99262.88;4807038;29;20210;-92
2022/06/17 03:28:08;;;;;;;3.10;1.13;;;;;;;19.00;65.83;99263.78;4805980;29;20191;-92
2022/06/17 03:30:38;;;;;;;3.30;1.23;;;;;;;18.93;66.05;99259.97;4806927;29;20300;-92
2022/06/17 03:33:34;;;;;;;4.13;0.97;;;;;;;19.00;65.95;99258.47;4807197;29;20169;-91
2022/06/17 03:36:06;;;;;;;2.10;1.10;;;;;;;19.02;65.93;99259.16;4805057;29;20245;-91
2022/06/17 03:38:46;;;;;;;2.10;0.97;;;;;;;19.02;65.56;99258.34;4807173;29;20579;-91
2022/06/17 03:41:21;;;;;;;1.40;0.80;;;;;;;19.05;65.71;99265.22;4806968;29;20175;-92
2022/06/17 03:43:52;;;;;;;6.07;1.27;;;;;;;19.09;65.56;99266.63;4806613;29;20648;-92
2022/06/17 03:46:21;;;;;;;2.27;0.93;;;;;;;19.10;65.89;99268.31;4806712;29;20265;-92
2022/06/17 03:48:59;;;;;;;2.10;1.00;;;;;;;19.09;66.67;99263.97;4806620;29;20186;-89
2022/06/17 03:51:25;;;;;;;4.00;1.20;;;;;;;19.12;66.95;99271.69;4790705;29;20269;-89
2022/06/17 03:53:52;;;;;;;2.63;1.27;;;;;;;19.15;67.14;99268.78;4806788;29;20260;-89
2022/06/17 03:56:39;;;;;;;4.47;1.43;;;;;;;19.26;66.76;99266.03;4805706;29;20622;-90
2022/06/17 03:59:07;;;;;;;2.77;1.63;;;;;;;19.32;66.18;99268.16;4806434;29;20201;-89
2022/06/17 04:01:40;;;;;;;2.23;1.37;;;;;;;19.42;65.92;99263.75;4806418;29;20178;-89
2022/06/17 04:04:13;;;;;;;1.80;1.10;;;;;;;19.50;65.88;99274.56;4806625;29;20272;-89
2022/06/17 04:06:41;;;;;;;4.73;1.53;;;;;;;19.61;65.92;99279.78;4806364;29;20234;-90
2022/06/17 04:09:14;;;;;;;3.07;1.20;;;;;;;19.71;65.85;99280.66;4806296;29;20676;-90
2022/06/17 04:11:42;;;;;;;3.07;1.57;;;;;;;19.70;65.77;99268.38;4805478;29;20186;-89
2022/06/17 04:14:21;;;;;;;2.83;1.40;;;;;;;19.71;66.04;99282.47;4791227;29;20269;-90
2022/06/17 04:17:08;;;;;;;3.30;1.50;;;;;;;19.83;65.61;99278.75;4805368;29;20190;-90
2022/06/17 04:19:34;;;;;;;3.63;1.30;;;;;;;19.84;66.03;99281.28;4807028;29;20170;-90
2022/06/17 04:22:05;;;;;;;2.80;1.50;;;;;;;19.91;66.52;99278.94;4806479;29;20178;-90
2022/06/17 04:24:32;;;;;;;2.03;1.10;;;;;;;19.93;67.28;99280.47;4806190;29;20221;-90
2022/06/17 04:27:04;;;;;;;5.10;1.60;;;;;;;20.05;66.42;99266.06;4806213;29;20193;-89
2022/06/17 04:29:36;;;;;;;1.63;0.97;;;;;;;20.20;66.20;99266.53;4806134;29;20193;-89
2022/06/17 04:32:14;;;;;;;3.80;1.60;;;;;;;20.27;66.84;99266.84;4805328;29;20655;-90
2022/06/17 04:34:40;;;;;;;3.57;1.50;;;;;;;20.32;66.13;99262.78;4806192;29;20159;-90
2022/06/17 04:37:17;;;;;;;2.83;1.60;;;;;;;20.41;65.33;99266.44;4790432;29;20205;-90
2022/06/17 04:39:51;;;;;;;3.50;1.50;;;;;;;20.41;64.28;99269.09;4806386;29;20166;-89
2022/06/17 04:42:22;;;;;;;3.60;1.73;;;;;;;20.39;63.81;99271.06;4805736;29;20182;-90
2022/06/17 04:44:50;;;;;;;3.00;1.87;;;;;;;20.50;64.82;99270.91;4790218;29;20186;-90
2022/06/17 04:47:20;;;;;;;3.27;1.77;;;;;;;20.50;65.56;99273.56;4805493;29;20197;-90
2022/06/17 04:49:56;;;;;;;3.47;1.60;;;;;;;20.46;65.65;99278.38;4805164;29;20186;-91
2022/06/17 04:52:23;;;;;;;2.37;1.27;;;;;;;20.67;65.96;99280.88;4790113;29;20615;-89
2022/06/17 04:54:51;;;;;;;4.60;1.60;;;;;;;20.70;66.05;99280.59;4808637;29;20283;-89
2022/06/17 04:57:26;;;;;;;3.33;1.70;;;;;;;20.76;66.69;99275.53;4808950;29;20278;-90
2022/06/17 04:59:51;;;;;;;2.77;1.67;;;;;;;21.00;65.87;99269.75;4809787;29;20170;-90
2022/06/17 05:02:21;;;;;;;3.00;1.60;;;;;;;21.04;66.64;99278.31;4809354;29;20659;-90
2022/06/17 05:04:51;;;;;;;3.27;1.50;;;;;;;21.17;66.17;99277.03;4793709;29;20628;-89
2022/06/17 05:07:17;;;;;;;3.63;1.53;;;;;;;21.24;66.69;99270.16;4809416;29;20163;-90
2022/06/17 05:09:59;;;;;;;7.87;2.20;;;;;;;21.33;66.47;99269.28;4809524;29;20206;-90
2022/06/17 05:12:27;;;;;;;4.40;2.20;;;;;;;21.51;67.01;99271.22;4810039;29;20167;-90
2022/06/17 05:14:59;;;;;;;3.07;1.50;;;;;;;21.75;66.96;99269.69;4809391;29;20210;-89
2022/06/17 05:17:25;;;;;;;3.30;1.90;;;;;;;21.85;66.90;99272.31;4809415;29;20171;-90
2022/06/17 05:19:51;;;;;;;5.23;2.30;;;;;;;21.85;63.75;99275.84;4808129;29;20185;-89
2022/06/17 05:22:36;;;;;;;2.47;1.43;;;;;;;22.08;62.77;99265.63;4809022;29;20175;-90
2022/06/17 05:25:13;;;;;;;6.67;1.80;;;;;;;22.21;61.27;99278.59;4808191;29;20273;-89
2022/06/17 05:27:39;;;;;;;2.83;1.73;;;;;;;22.47;59.51;99271.53;4814272;29;20173;-88
2022/06/17 05:30:05;;;;;;;3.77;2.23;;;;;;;22.62;59.46;99275.34;4826404;29;20178;-89
2022/06/17 05:32:31;;;;;;;4.60;2.00;;;;;;;22.67;58.69;99278.41;4826778;29;20186;-89
2022/06/17 05:34:57;;;;;;;4.03;1.57;;;;;;;22.95;57.48;99273.81;4826517;29;20254;-89
2022/06/17 05:37:22;;;;;;;5.93;1.60;;;;;;;23.40;56.68;99266.44;4825798;29;20196;-89
2022/06/17 05:39:47;;;;;;;3.33;1.60;;;;;;;23.66;54.39;99256.56;4828285;29;20185;-89
2022/06/17 05:42:13;;;;;;;3.17;1.70;;;;;;;23.78;54.14;99255.28;4844958;29;20514;-88
2022/06/17 05:44:39;;;;;;;2.73;1.50;;;;;;;23.77;52.39;99258.94;4828795;29;20213;-88
2022/06/17 05:47:05;;;;;;;3.80;1.87;;;;;;;23.78;52.50;99267.81;4844905;29;20200;-89
2022/06/17 05:49:31;;;;;;;2.47;1.70;;;;;;;23.83;53.47;99270.84;4844596;29;20173;-88
2022/06/17 05:51:58;;;;;;;3.60;1.70;;;;;;;23.89;53.17;99266.69;4827593;29;20550;-89
2022/06/17 05:54:24;;;;;;;3.40;1.53;;;;;;;23.94;52.52;99265.22;4844896;29;20292;-89
2022/06/17 05:56:49;;;;;;;5.07;1.63;;;;;;;23.86;53.48;99262.50;4844900;29;20196;-89
2022/06/17 05:59:17;;;;;;;3.13;2.03;;;;;;;24.02;53.80;99257.22;4845127;29;20205;-88
2022/06/17 06:01:43;;;;;;;4.43;1.70;;;;;;;24.23;51.62;99252.28;4845358;29;20175;-89
2022/06/17 06:04:09;;;;;;;3.80;2.00;;;;;;;24.58;51.03;99243.09;4827632;29;20209;-89
2022/06/17 06:06:34;;;;;;;3.67;1.97;;;;;;;24.78;50.44;99243.63;4828245;29;20662;-88
2022/06/17 06:09:00;;;;;;;2.93;1.70;;;;;;;24.84;50.39;99238.44;4844727;29;20185;-90
2022/06/17 06:11:25;;;;;;;3.37;1.70;;;;;;;25.04;50.28;99239.78;4844949;29;20185;-90
2022/06/17 06:13:51;;;;;;;4.30;1.77;;;;;;;25.21;49.43;99245.94;4828408;29;20300;-89
2022/06/17 06:16:16;;;;;;;3.07;1.70;;;;;;;25.49;50.83;99243.75;4844567;29;20181;-89
2022/06/17 06:18:47;;;;;;;3.30;2.43;;;;;;;25.68;49.19;99248.72;4844464;29;20651;-90
2022/06/17 06:21:13;;;;;;;2.60;1.73;;;;;;;25.75;48.09;99247.00;4828235;29;20173;-88
2022/06/17 06:23:41;;;;;;;2.63;1.77;;;;;;;26.00;47.52;99243.19;4844244;29;20205;-90
2022/06/17 06:26:09;;;;;;;4.87;2.10;;;;;;;26.23;46.42;99237.91;4828293;29;20192;-90
2022/06/17 06:28:35;;;;;;;3.10;1.67;;;;;;;26.40;46.02;99242.13;4844654;29;20218;-90
2022/06/17 06:31:17;;;;;;;3.50;1.87;;;;;;;26.46;46.13;99244.13;4828441;29;20179;-90
2022/06/17 06:33:42;;;;;;;3.53;1.80;;;;;;;26.90;45.54;99246.97;4840367;29;20547;-90
2022/06/17 06:36:08;;;;;;;4.47;2.00;;;;;;;26.92;44.48;99244.09;4843837;29;20197;-90
2022/06/17 06:38:41;;;;;;;4.70;2.07;;;;;;;26.96;44.03;99240.88;4843868;29;20609;-90
2022/06/17 06:41:06;;;;;;;4.27;1.73;;;;;;;26.90;45.14;99236.22;4844507;29;20169;-90
2022/06/17 06:43:33;;;;;;;3.08;1.38;;;;;;;27.07;44.45;99237.72;4827895;29;20268;-89
2022/06/17 06:46:34;;;;;;;3.92;1.80;;;;;;;27.20;44.88;99234.44;4827707;29;20601;-91
2022/06/17 06:49:49;;;;;;;;;;;;;;;;;;;;;
2022/06/17 06:52:18;;;;;;;3.38;1.60;;;;;;;27.84;45.34;99216.69;4841789;29;20193;-90
2022/06/17 06:54:44;;;;;;;6.03;2.00;;;;;;;28.27;44.49;99226.56;4827761;29;20638;-90
2022/06/17 06:57:21;;;;;;;;;;;;;;;;;;;;;
2022/06/17 07:00:22;;;;;;;2.60;1.60;;;;;;;28.18;42.71;99208.00;4843670;29;20161;-92
2022/06/17 07:02:49;;;;;;;5.28;1.83;;;;;;;28.46;44.15;99209.75;4842860;29;20213;-91
2022/06/17 07:05:15;;;;;;;2.95;1.80;;;;;;;28.88;43.53;99210.78;4843745;29;20565;-91
2022/06/17 07:08:00;;;;;;;;;;;;;;;;;;;;;
2022/06/17 07:10:42;;;;;;;;;;;;;;;;;;;;;
2022/06/17 07:13:09;;;;;;;3.20;1.80;;;;;;;29.30;41.83;99202.59;4843952;29;20172;-91
2022/06/17 07:16:07;;;;;;;2.20;1.35;;;;;;;29.65;39.36;99206.09;4843215;29;20189;-91
2022/06/17 07:32:54;;;;;;;;;;;;;;;;;;;;;
2022/06/17 07:50:40;;;;;;;;;;;;;;;;;;;;;
2022/06/17 07:57:36;;;;;;;;;;;;;;;;;;;;;
2022/06/17 08:00:07;;;;;;;2.63;1.42;;;;;;;31.36;34.93;99161.22;4624373;31;20219;-94
2022/06/17 08:03:44;;;;;;;2.85;1.50;;;;;;;31.86;36.48;99155.00;4630647;30;20201;-93
2022/06/17 08:07:06;;;;;;;2.60;1.40;;;;;;;32.03;35.87;99145.31;4584600;31;20199;-93
2022/06/17 08:10:20;;;;;;;2.65;1.70;;;;;;;32.59;34.63;99147.25;4620850;30;20284;-93
2022/06/17 08:13:53;;;;;;;;;;;;;;;;;;;;;
2022/06/17 08:26:48;;;;;;;3.50;1.63;;;;;;;33.09;35.54;99140.75;4702277;30;20190;-93
2022/06/17 08:29:14;;;;;;;1.77;1.05;;;;;;;33.11;31.60;99143.25;4683462;30;20190;-91
2022/06/17 08:34:58;;;;;;;;;;;;;;;;;;;;;
2022/06/17 08:38:57;;;;;;;;;;;;;;;;;;;;;
2022/06/17 08:48:48;;;;;;;4.35;1.20;;;;;;;33.04;29.21;99153.31;4613214;31;20257;-91
2022/06/17 08:51:51;;;;;;;5.30;0.73;;;;;;;33.03;28.18;99144.34;4615979;31;20660;-92
2022/06/17 08:54:44;;;;;;;;;;;;;;;;;;;;;
2022/06/17 09:03:51;;;;;;;;;;;;;;;;;;;;;
2022/06/17 09:06:47;;;;;;;1.52;0.85;;;;;;;33.03;28.07;99136.19;4748313;30;20218;-91
2022/06/17 09:10:06;;;;;;;2.03;0.93;;;;;;;33.05;28.88;99136.81;4784039;30;20221;-92
2022/06/17 09:13:08;;;;;;;;;;;;;;;;;;;;;
2022/06/17 09:16:22;;;;;;;;;;;;;;;;;;;;;
2022/06/17 09:18:56;;;;;;;1.20;0.63;;;;;;;33.60;26.46;99131.41;4841306;29;20196;-91
2022/06/17 09:21:48;;;;;;;4.63;1.00;;;;;;;33.89;26.51;99117.84;4842158;29;20166;-92
2022/06/17 09:24:20;;;;;;;2.65;0.70;;;;;;;33.82;27.70;99114.41;4819018;29;20223;-93
2022/06/17 09:27:06;;;;;;;3.35;0.60;;;;;;;33.67;24.88;99122.13;4826307;29;20643;-91
2022/06/17 09:33:35;;;;;;;2.55;0.77;;;;;;;34.02;27.27;99105.94;4832752;29;20617;-92
2022/06/17 09:36:44;;;;;;;2.70;1.10;;;;;;;33.90;28.13;99115.97;4837037;29;20220;-91
2022/06/17 09:39:53;;;;;;;3.85;1.20;;;;;;;34.34;27.23;99101.06;4772587;30;20199;-91
2022/06/17 09:52:40;;;;;;;2.55;0.90;;;;;;;34.84;25.41;99101.50;4701041;30;20693;-92
2022/06/17 09:55:17;;;;;;;2.72;0.80;;;;;;;34.86;26.31;99099.34;4701114;30;20630;-93
2022/06/17 09:58:20;;;;;;;1.35;0.77;;;;;;;34.91;25.11;99096.75;4701042;30;20181;-93
2022/06/17 10:08:31;;;;;;;;;;;;;;;;;;;;;
2022/06/17 10:19:16;;;;;;;3.33;1.25;;;;;;;35.38;27.96;99082.00;4683086;30;20673;-92
2022/06/17 10:22:32;;;;;;;3.20;1.02;;;;;;;35.46;26.58;99070.72;4632486;31;20315;-94
2022/06/17 10:29:55;;;;;;;2.45;1.25;;;;;;;35.27;26.44;99074.72;4632138;31;20259;-96
2022/06/17 10:36:52;;;;;;;;;;;;;;;;;;;;;
2022/06/17 10:43:56;;;;;;;1.73;0.90;;;;;;;35.29;27.47;99060.81;4614494;31;20237;-93
2022/06/17 10:53:31;;;;;;;;;;;;;;;;;;;;;
2022/06/17 10:56:16;;;;;;;1.63;1.08;;;;;;;35.46;27.56;99040.72;4744749;30;20208;-91
2022/06/17 10:59:07;;;;;;;4.47;1.42;;;;;;;35.58;27.23;99036.09;4752592;30;20284;-95
2022/06/17 11:05:19;;;;;;;;;;;;;;;;;;;;;
2022/06/17 11:07:47;;;;;;;2.42;0.93;;;;;;;35.33;25.44;99038.28;4844598;29;20199;-92
2022/06/17 11:10:13;;;;;;;1.30;0.63;;;;;;;34.78;26.12;99037.06;4827893;29;20658;-91
2022/06/17 11:12:42;;;;;;;2.65;1.05;;;;;;;34.53;25.71;99032.69;4827765;29;20192;-91
2022/06/17 11:15:40;;;;;;;;;;;;;;;;;;;;;
2022/06/17 11:19:01;;;;;;;3.38;0.98;;;;;;;35.00;27.67;99030.78;4843521;29;20192;-94
2022/06/17 11:22:15;;;;;;;;;;;;;;;;;;;;;
2022/06/17 11:25:42;;;;;;;;;;;;;;;;;;;;;
2022/06/17 11:34:12;;;;;;;3.50;1.00;;;;;;;35.44;26.38;99010.16;4892645;24;20240;-93
2022/06/17 11:44:57;;;;;;;;;;;;;;;;;;;;;
2022/06/17 12:01:41;;;;;;;1.63;0.80;;;;;;;35.78;26.04;98994.72;4677263;30;20349;-93
2022/06/17 12:39:58;;;;;;;;;;;;;;;;;;;;;
2022/06/17 12:42:55;;;;;;;;;;;;;;;;;;;;;
2022/06/17 12:45:59;;;;;;;2.50;1.42;;;;;;;35.89;24.13;98946.59;4682188;30;20217;-92
2022/06/17 12:53:23;;;;;;;;;;;;;;;;;;;;;
2022/06/17 13:06:04;;;;;;;;;;;;;;;;;;;;;
2022/06/17 13:08:35;;;;;;;3.10;1.60;;;;;;;36.03;24.01;98928.88;4734079;30;20190;-94
2022/06/17 13:18:49;;;;;;;7.45;1.88;;;;;;;36.85;24.02;98922.38;4668111;30;20666;-94
2022/06/17 13:22:02;;;;;;;;;;;;;;;;;;;;;
2022/06/17 13:35:49;;;;;;;3.08;1.33;;;;;;;36.80;24.13;98916.84;4752016;30;20296;-92
2022/06/17 13:42:58;;;;;;;8.27;3.05;;;;;;;36.61;25.81;98901.84;4736158;30;20302;-92
2022/06/17 13:45:56;;;;;;;;;;;;;;;;;;;;;
2022/06/17 13:48:43;;;;;;;;;;;;;;;;;;;;;
2022/06/17 13:51:48;;;;;;;3.83;1.63;;;;;;;36.50;24.23;98899.28;4780019;29;20190;-92
2022/06/17 13:55:16;;;;;;;;;;;;;;;;;;;;;
2022/06/17 13:58:41;;;;;;;;;;;;;;;;;;;;;
2022/06/17 14:01:08;;;;;;;2.65;1.40;;;;;;;36.14;24.92;98890.53;4816537;29;20203;-93
2022/06/17 15:00:42;;;;;;;7.00;1.90;;;;;;;35.06;25.93;98843.75;4842595;29;20683;-93
2022/06/17 15:03:34;;;;;;;3.60;1.50;;;;;;;34.44;25.48;98834.56;4828206;29;20209;-91
2022/06/17 15:06:04;;;;;;;4.70;1.13;;;;;;;34.24;26.02;98843.13;4827992;29;20232;-92
2022/06/17 15:08:39;;;;;;;2.67;1.35;;;;;;;34.28;26.26;98844.31;4828828;29;20192;-94
2022/06/17 15:11:17;;;;;;;2.88;1.50;;;;;;;33.92;26.38;98847.28;4844173;29;20184;-93
2022/06/17 15:14:10;;;;;;;6.35;1.77;;;;;;;33.77;26.71;98845.03;4827909;29;20604;-92
2022/06/17 15:17:19;;;;;;;;;;;;;;;;;;;;;
2022/06/17 15:20:07;;;;;;;5.28;2.25;;;;;;;34.60;25.92;98833.81;4843463;29;20205;-92
2022/06/17 15:22:44;;;;;;;3.17;1.30;;;;;;;34.32;25.50;98837.31;4843605;29;20193;-94
2022/06/17 15:28:47;;;;;;;3.28;1.20;;;;;;;33.97;27.32;98840.06;4836922;29;20584;-93
2022/06/17 15:31:19;;;;;;;1.90;1.00;;;;;;;34.21;26.50;98838.16;4827659;29;20182;-93
2022/06/17 15:34:24;;;;;;;2.97;1.42;;;;;;;34.57;25.84;98839.75;4843594;29;20169;-93
2022/06/17 15:37:04;;;;;;;5.28;1.70;;;;;;;34.48;25.21;98843.91;4841384;29;20308;-93
2022/06/17 15:39:29;;;;;;;8.23;1.77;;;;;;;34.39;25.75;98848.06;4828207;29;20203;-92
2022/06/17 15:42:01;;;;;;;5.47;1.67;;;;;;;34.47;26.52;98847.69;4827531;29;20193;-93
2022/06/17 15:44:33;;;;;;;8.57;1.77;;;;;;;34.50;26.59;98852.66;4827559;29;20204;-93
2022/06/17 15:47:08;;;;;;;3.35;1.38;;;;;;;34.12;25.31;98861.34;4843691;29;20200;-92
2022/06/17 15:49:36;;;;;;;3.42;1.30;;;;;;;33.70;25.95;98862.53;4828180;29;20185;-93
2022/06/17 15:52:25;;;;;;;2.53;0.95;;;;;;;33.82;26.29;98857.94;4827190;29;20189;-91
2022/06/17 15:54:56;;;;;;;2.13;0.95;;;;;;;33.93;26.67;98862.53;4843799;29;20169;-92
2022/06/17 15:57:29;;;;;;;2.67;1.23;;;;;;;33.97;26.14;98855.53;4827096;29;20181;-92
2022/06/17 15:59:54;;;;;;;2.30;1.10;;;;;;;34.02;27.19;98863.81;4827129;29;20270;-92
2022/06/17 16:02:29;;;;;;;3.55;1.00;;;;;;;34.01;26.21;98862.19;4811090;29;20262;-93
2022/06/17 16:05:34;;;;;;;8.25;1.52;;;;;;;33.94;26.47;98861.47;4825288;29;20250;-93
2022/06/17 16:08:36;;;;;;;1.83;1.05;;;;;;;33.81;26.46;98859.81;4808849;29;20194;-92
2022/06/17 16:11:23;;;;;;;2.35;1.20;;;;;;;33.68;26.76;98862.75;4808657;29;20181;-92
2022/06/17 16:13:58;;;;;;;3.05;1.48;;;;;;;33.77;26.94;98860.53;4808792;29;20173;-93
2022/06/17 16:16:46;;;;;;;;;;;;;;;;;;;;;
2022/06/17 16:19:27;;;;;;;5.47;1.08;;;;;;;33.59;26.75;98861.47;4825215;29;20170;-92
2022/06/17 16:21:58;;;;;;;3.00;1.05;;;;;;;33.58;26.58;98856.25;4825304;29;20609;-93
2022/06/17 16:24:32;;;;;;;2.58;1.52;;;;;;;33.33;26.71;98856.44;4808649;29;20288;-92
2022/06/17 16:27:01;;;;;;;2.58;1.10;;;;;;;33.21;27.30;98856.41;4808557;29;20193;-94
2022/06/17 16:29:45;;;;;;;3.08;1.35;;;;;;;33.07;26.65;98863.06;4824343;29;20192;-92
2022/06/17 16:32:22;;;;;;;3.83;1.27;;;;;;;32.80;26.32;98857.19;4824782;29;20169;-92
2022/06/17 16:34:49;;;;;;;2.63;0.90;;;;;;;32.79;27.19;98860.94;4808575;29;20636;-92
2022/06/17 16:37:25;;;;;;;4.25;1.17;;;;;;;32.43;26.67;98862.84;4808416;29;20190;-93
2022/06/17 16:46:08;;;;;;;1.60;1.00;;;;;;;32.20;27.09;98866.25;4825240;29;20218;-92
2022/06/17 16:48:34;;;;;;;2.55;0.95;;;;;;;32.31;27.49;98854.66;4808546;29;20558;-92
2022/06/17 16:51:05;;;;;;;2.03;0.85;;;;;;;32.37;27.47;98855.59;4812014;29;20228;-93
2022/06/17 16:53:31;;;;;;;3.35;1.40;;;;;;;32.23;27.27;98866.59;4811991;29;20185;-93
2022/06/17 16:55:58;;;;;;;2.63;1.20;;;;;;;32.18;27.85;98861.03;4812267;29;20288;-93
2022/06/17 16:58:23;;;;;;;2.60;0.98;;;;;;;32.02;26.91;98877.88;4827871;29;20186;-94
2022/06/17 17:00:50;;;;;;;2.72;1.05;;;;;;;31.81;27.31;98872.88;4811890;29;20219;-92
2022/06/17 17:03:20;;;;;;;2.42;1.00;;;;;;;31.72;27.65;98876.06;4812068;29;20205;-94
2022/06/17 17:05:48;;;;;;;2.67;1.02;;;;;;;31.48;28.07;98875.84;4811877;29;20235;-93
2022/06/17 17:08:13;;;;;;;1.65;0.80;;;;;;;31.48;27.93;98872.31;4811663;29;20210;-93
2022/06/17 17:10:42;;;;;;;1.38;0.70;;;;;;;31.63;28.51;98865.50;4827483;29;20232;-93
2022/06/17 17:13:09;;;;;;;5.15;1.40;;;;;;;31.65;30.17;98870.72;4811814;29;20273;-93
2022/06/17 17:15:35;;;;;;;2.50;1.17;;;;;;;31.60;30.11;98878.69;4827616;29;20609;-93
2022/06/17 17:18:01;;;;;;;2.40;1.10;;;;;;;31.52;31.79;98878.97;4827428;29;20196;-92
2022/06/17 17:20:26;;;;;;;3.35;1.35;;;;;;;31.47;30.93;98873.38;4827267;29;20186;-92
2022/06/17 17:22:55;;;;;;;4.05;1.25;;;;;;;31.40;30.84;98876.09;4827144;29;20213;-93
2022/06/17 17:25:29;;;;;;;4.10;1.15;;;;;;;31.31;31.10;98868.47;4827300;29;20272;-91
2022/06/17 17:27:56;;;;;;;2.25;0.90;;;;;;;31.14;31.97;98878.16;4827180;29;20169;-92
2022/06/17 17:30:22;;;;;;;2.53;1.15;;;;;;;31.03;33.74;98880.50;4827084;29;20250;-92
2022/06/17 17:32:48;;;;;;;2.67;1.15;;;;;;;30.99;32.12;98873.88;4811283;29;20201;-92
2022/06/17 17:35:15;;;;;;;4.70;1.40;;;;;;;30.96;32.88;98879.72;4811105;29;20185;-92
2022/06/17 17:37:41;;;;;;;5.18;1.00;;;;;;;30.89;32.99;98875.38;4827046;29;20201;-92
2022/06/17 17:40:08;;;;;;;3.17;1.00;;;;;;;30.78;33.13;98876.88;4826888;29;20186;-93
2022/06/17 17:42:34;;;;;;;4.63;0.90;;;;;;;30.69;32.99;98882.72;4827160;29;20188;-92
2022/06/17 17:45:01;;;;;;;2.35;1.13;;;;;;;30.59;33.06;98880.50;4811000;29;20206;-92
2022/06/17 17:47:27;;;;;;;2.25;1.05;;;;;;;30.40;33.69;98882.22;4826781;29;20221;-92